createdAt,value
2018-09-29T00:01:50.420Z,9.07
2018-09-29T00:03:54.163Z,8.63
2018-09-29T00:05:57.923Z,8.10
2018-09-29T00:08:01.902Z,15.47
2018-09-29T00:10:05.699Z,8.67
2018-09-29T00:12:09.568Z,6.40
2018-09-29T00:14:13.330Z,7.40
2018-09-29T00:16:17.139Z,6.67
2018-09-29T00:18:20.994Z,7.83
2018-09-29T00:20:24.785Z,7.60
2018-09-29T00:22:28.523Z,7.53
2018-09-29T00:24:32.337Z,8.70
2018-09-29T00:26:36.085Z,3.00
2018-09-29T00:28:39.839Z,4.80
2018-09-29T00:30:43.807Z,9.53
2018-09-29T00:32:47.763Z,5.70
2018-09-29T00:34:51.529Z,9.20
2018-09-29T00:36:55.292Z,9.37
2018-09-29T00:38:59.089Z,6.77
2018-09-29T00:41:02.871Z,7.93
2018-09-29T00:43:06.848Z,12.90
2018-09-29T00:45:10.824Z,5.70
2018-09-29T00:47:14.611Z,9.63
2018-09-29T00:49:18.387Z,5.57
2018-09-29T00:51:22.199Z,12.73
2018-09-29T00:53:25.954Z,7.27
2018-09-29T00:55:29.929Z,6.07
2018-09-29T00:57:33.649Z,9.63
2018-09-29T00:59:37.420Z,5.90
2018-09-29T01:01:41.182Z,6.47
2018-09-29T01:03:44.976Z,5.57
2018-09-29T01:05:48.731Z,14.83
2018-09-29T01:07:52.537Z,5.77
2018-09-29T01:09:56.418Z,7.80
2018-09-29T01:12:00.160Z,9.68
2018-09-29T01:14:03.882Z,6.97
2018-09-29T01:16:07.850Z,5.70
2018-09-29T01:18:11.637Z,17.53
2018-09-29T01:20:15.491Z,8.30
2018-09-29T01:22:19.447Z,6.53
2018-09-29T01:24:23.211Z,6.53
2018-09-29T01:26:26.942Z,6.23
2018-09-29T01:28:30.795Z,6.23
2018-09-29T01:30:34.513Z,5.30
2018-09-29T01:32:38.303Z,8.77
2018-09-29T01:34:42.056Z,6.20
2018-09-29T01:36:45.801Z,11.50
2018-09-29T01:38:49.576Z,9.43
2018-09-29T01:40:53.338Z,10.37
2018-09-29T01:42:57.057Z,6.73
2018-09-29T01:45:01.067Z,4.70
2018-09-29T01:47:04.851Z,9.93
2018-09-29T01:49:08.588Z,5.83
2018-09-29T01:51:12.385Z,13.07
2018-09-29T01:53:16.140Z,6.60
2018-09-29T01:55:19.889Z,4.97
2018-09-29T01:57:23.711Z,6.67
2018-09-29T01:59:27.511Z,8.37
2018-09-29T02:01:31.295Z,7.63
2018-09-29T02:03:35.009Z,6.47
2018-09-29T02:05:39.446Z,4.20
2018-09-29T02:07:43.204Z,4.00
2018-09-29T02:09:47.015Z,6.20
2018-09-29T02:11:50.765Z,4.30
2018-09-29T02:13:54.565Z,6.20
2018-09-29T02:16:00.621Z,7.80
2018-09-29T02:18:04.393Z,8.80
2018-09-29T02:20:08.167Z,5.27
2018-09-29T02:22:11.943Z,4.53
2018-09-29T02:24:15.702Z,4.60
2018-09-29T02:26:19.484Z,5.03
2018-09-29T02:28:23.258Z,5.80
2018-09-29T02:30:27.001Z,7.30
2018-09-29T02:32:30.793Z,15.70
2018-09-29T02:34:34.510Z,6.80
2018-09-29T02:36:38.264Z,5.53
2018-09-29T02:38:42.665Z,6.77
2018-09-29T02:40:46.590Z,9.37
2018-09-29T02:42:50.414Z,6.40
2018-09-29T02:44:54.195Z,9.23
2018-09-29T02:46:57.951Z,4.10
2018-09-29T02:49:01.683Z,6.47
2018-09-29T02:51:05.627Z,9.10
2018-09-29T02:53:09.643Z,6.23
2018-09-29T02:55:13.424Z,4.47
2018-09-29T02:57:17.197Z,6.13
2018-09-29T02:59:21.065Z,8.87
2018-09-29T03:01:24.848Z,5.93
2018-09-29T03:03:28.798Z,9.60
2018-09-29T03:05:32.592Z,8.13
2018-09-29T03:07:36.666Z,10.17
2018-09-29T03:09:40.418Z,13.73
2018-09-29T03:11:44.198Z,5.70
2018-09-29T03:13:48.243Z,6.83
2018-09-29T03:15:51.980Z,5.50
2018-09-29T03:17:55.787Z,8.87
2018-09-29T03:19:59.549Z,5.10
2018-09-29T03:22:03.374Z,8.23
2018-09-29T03:24:07.178Z,4.30
2018-09-29T03:26:10.953Z,7.73
2018-09-29T03:28:14.740Z,9.03
2018-09-29T03:30:18.682Z,7.97
2018-09-29T03:32:22.436Z,12.40
2018-09-29T03:34:26.201Z,10.60
2018-09-29T03:36:29.982Z,9.47
2018-09-29T03:38:33.746Z,11.70
2018-09-29T03:40:37.535Z,7.87
2018-09-29T03:42:41.252Z,5.80
2018-09-29T03:44:45.017Z,8.63
2018-09-29T03:46:48.809Z,8.87
2018-09-29T03:48:52.588Z,14.43
2018-09-29T03:50:56.310Z,8.83
2018-09-29T03:53:00.132Z,8.43
2018-09-29T03:55:03.894Z,5.43
2018-09-29T03:57:07.669Z,7.53
2018-09-29T03:59:11.643Z,9.93
2018-09-29T04:01:15.419Z,8.60
2018-09-29T04:03:19.163Z,5.80
2018-09-29T04:05:22.931Z,9.93
2018-09-29T04:07:26.701Z,3.70
2018-09-29T04:09:30.490Z,5.20
2018-09-29T04:11:34.267Z,4.40
2018-09-29T04:13:38.238Z,7.17
2018-09-29T04:15:42.149Z,5.20
2018-09-29T04:17:45.947Z,3.40
2018-09-29T04:19:49.761Z,6.10
2018-09-29T04:21:53.509Z,6.17
2018-09-29T04:23:57.435Z,3.53
2018-09-29T04:26:01.177Z,4.80
2018-09-29T04:28:04.973Z,6.03
2018-09-29T04:30:08.749Z,5.73
2018-09-29T04:32:12.523Z,3.83
2018-09-29T04:34:16.348Z,8.40
2018-09-29T04:36:20.126Z,8.10
2018-09-29T04:38:23.840Z,7.13
2018-09-29T04:40:27.616Z,9.03
2018-09-29T04:42:31.379Z,10.13
2018-09-29T04:44:35.142Z,14.17
2018-09-29T04:46:39.383Z,6.73
2018-09-29T04:48:43.145Z,9.67
2018-09-29T04:50:46.879Z,6.80
2018-09-29T04:52:50.665Z,8.40
2018-09-29T04:54:54.454Z,17.63
2018-09-29T04:56:58.201Z,11.90
2018-09-29T04:59:02.046Z,4.30
2018-09-29T05:01:07.202Z,9.20
2018-09-29T05:03:11.004Z,10.30
2018-09-29T05:05:14.829Z,5.20
2018-09-29T05:07:18.846Z,6.90
2018-09-29T05:09:22.806Z,13.17
2018-09-29T05:11:26.846Z,8.90
2018-09-29T05:13:30.863Z,6.10
2018-09-29T05:15:35.118Z,7.70
2018-09-29T05:17:39.250Z,8.87
2018-09-29T05:19:43.285Z,16.30
2018-09-29T05:21:47.416Z,12.70
2018-09-29T05:23:51.661Z,9.60
2018-09-29T05:25:55.778Z,10.57
2018-09-29T05:27:59.820Z,11.53
2018-09-29T05:30:03.836Z,7.40
2018-09-29T05:32:07.844Z,8.20
2018-09-29T05:34:12.012Z,6.93
2018-09-29T05:36:16.168Z,7.50
2018-09-29T05:38:20.358Z,10.23
2018-09-29T05:40:24.607Z,7.00
2018-09-29T05:42:28.908Z,9.20
2018-09-29T05:44:32.779Z,4.03
2018-09-29T05:46:38.841Z,13.23
2018-09-29T05:48:42.794Z,9.60
2018-09-29T05:50:47.083Z,8.00
2018-09-29T05:52:51.230Z,8.30
2018-09-29T05:54:55.265Z,9.20
2018-09-29T05:56:59.450Z,15.10
2018-09-29T05:59:03.565Z,4.80
2018-09-29T06:01:07.509Z,6.43
2018-09-29T06:03:11.575Z,5.70
2018-09-29T06:05:15.613Z,11.20
2018-09-29T06:07:19.687Z,14.77
2018-09-29T06:09:23.632Z,14.13
2018-09-29T06:11:27.868Z,21.37
2018-09-29T06:13:31.660Z,19.97
2018-09-29T06:15:36.519Z,17.17
2018-09-29T06:17:40.358Z,11.17
2018-09-29T06:19:44.464Z,11.37
2018-09-29T06:21:48.271Z,17.37
2018-09-29T06:23:52.558Z,21.83
2018-09-29T06:25:56.490Z,14.53
2018-09-29T06:28:01.129Z,12.40
2018-09-29T06:30:05.344Z,30.17
2018-09-29T06:32:09.375Z,21.63
2018-09-29T06:34:13.888Z,43.20
2018-09-29T06:36:18.224Z,24.63
2018-09-29T06:38:22.527Z,9.30
2018-09-29T06:40:26.973Z,10.50
2018-09-29T06:42:31.694Z,5.00
2018-09-29T06:44:35.551Z,6.67
2018-09-29T06:46:39.466Z,11.63
2018-09-29T06:48:43.652Z,12.37
2018-09-29T06:50:47.423Z,11.87
2018-09-29T06:52:51.216Z,12.73
2018-09-29T06:54:55.011Z,9.93
2018-09-29T06:56:58.855Z,8.80
2018-09-29T06:59:02.665Z,9.20
2018-09-29T07:01:06.535Z,8.77
2018-09-29T07:03:10.445Z,14.75
2018-09-29T07:05:14.223Z,8.97
2018-09-29T07:07:18.340Z,10.90
2018-09-29T07:09:22.124Z,9.33
2018-09-29T07:11:26.464Z,10.90
2018-09-29T07:13:30.271Z,10.03
2018-09-29T07:15:34.151Z,8.23
2018-09-29T07:17:37.960Z,10.57
2018-09-29T07:19:41.963Z,12.20
2018-09-29T07:21:45.802Z,9.00
2018-09-29T07:24:42.332Z,6.53
2018-09-29T07:26:46.322Z,10.63
2018-09-29T07:28:50.318Z,11.37
2018-09-29T07:30:54.536Z,11.33
2018-09-29T07:32:58.843Z,11.47
2018-09-29T07:35:02.727Z,10.80
2018-09-29T07:37:08.085Z,15.80
2018-09-29T07:39:12.569Z,12.97
2018-09-29T07:41:16.736Z,8.50
2018-09-29T07:43:20.612Z,8.50
2018-09-29T07:45:24.888Z,13.40
2018-09-29T07:47:28.969Z,9.10
2018-09-29T07:49:32.924Z,13.50
2018-09-29T07:51:36.942Z,7.27
2018-09-29T07:53:40.977Z,8.43
2018-09-29T07:55:44.895Z,17.23
2018-09-29T07:57:48.879Z,14.90
2018-09-29T07:59:52.936Z,10.93
2018-09-29T08:01:57.169Z,14.93
2018-09-29T08:04:01.312Z,17.10
2018-09-29T08:06:05.417Z,10.93
2018-09-29T08:08:09.429Z,8.20
2018-09-29T08:10:13.226Z,15.23
2018-09-29T08:12:17.088Z,10.97
2018-09-29T08:14:20.857Z,13.20
2018-09-29T08:16:24.633Z,10.37
2018-09-29T08:18:28.495Z,8.87
2018-09-29T08:20:32.788Z,10.10
2018-09-29T08:22:36.543Z,8.17
2018-09-29T08:24:40.279Z,7.33
2018-09-29T08:26:44.050Z,10.63
2018-09-29T08:28:47.826Z,9.43
2018-09-29T08:30:51.569Z,11.63
2018-09-29T08:32:55.366Z,8.50
2018-09-29T08:34:59.116Z,13.53
2018-09-29T08:37:02.886Z,11.13
2018-09-29T08:39:07.942Z,16.70
2018-09-29T08:41:11.821Z,20.33
2018-09-29T08:43:15.545Z,23.23
2018-09-29T08:45:19.355Z,12.40
2018-09-29T08:47:23.094Z,9.63
2018-09-29T08:49:26.859Z,14.13
2018-09-29T08:51:30.633Z,14.67
2018-09-29T08:53:34.415Z,13.40
2018-09-29T08:55:38.147Z,13.27
2018-09-29T08:57:41.915Z,11.37
2018-09-29T08:59:45.804Z,9.23
2018-09-29T09:01:56.943Z,11.60
2018-09-29T09:04:00.738Z,11.37
2018-09-29T09:06:04.524Z,17.37
2018-09-29T09:08:08.320Z,22.10
2018-09-29T09:10:12.091Z,10.57
2018-09-29T09:12:15.884Z,16.70
2018-09-29T09:14:19.698Z,13.90
2018-09-29T09:16:23.511Z,16.10
2018-09-29T09:18:27.288Z,9.43
2018-09-29T09:20:31.030Z,8.73
2018-09-29T09:22:35.172Z,9.40
2018-09-29T09:24:39.434Z,9.13
2018-09-29T09:26:43.568Z,11.57
2018-09-29T09:28:47.978Z,14.63
2018-09-29T09:30:52.117Z,9.80
2018-09-29T09:32:56.215Z,9.87
2018-09-29T09:35:00.492Z,12.17
2018-09-29T09:37:04.602Z,14.20
2018-09-29T09:39:09.790Z,7.50
2018-09-29T09:41:13.714Z,14.70
2018-09-29T09:43:17.508Z,13.40
2018-09-29T09:45:22.527Z,10.83
2018-09-29T09:47:26.610Z,17.30
2018-09-29T09:49:30.710Z,16.87
2018-09-29T09:51:34.826Z,22.50
2018-09-29T09:53:38.844Z,16.27
2018-09-29T09:55:43.109Z,14.43
2018-09-29T09:57:47.263Z,11.80
2018-09-29T09:59:51.449Z,9.13
2018-09-29T10:02:00.930Z,16.53
2018-09-29T10:04:05.702Z,10.43
2018-09-29T10:06:09.889Z,12.33
2018-09-29T10:08:14.160Z,10.87
2018-09-29T10:10:18.151Z,10.03
2018-09-29T10:12:22.233Z,15.30
2018-09-29T10:14:26.218Z,9.87
2018-09-29T10:16:30.344Z,9.80
2018-09-29T10:18:34.342Z,7.07
2018-09-29T10:20:38.407Z,10.00
2018-09-29T10:22:42.728Z,8.63
2018-09-29T10:24:46.710Z,7.43
2018-09-29T10:26:50.984Z,15.50
2018-09-29T10:28:54.753Z,4.30
2018-09-29T10:30:58.492Z,4.93
2018-09-29T10:33:02.293Z,8.87
2018-09-29T10:35:06.099Z,7.13
2018-09-29T10:37:09.899Z,6.77
2018-09-29T10:39:14.337Z,12.00
2018-09-29T10:41:18.146Z,9.90
2018-09-29T10:43:21.884Z,9.37
2018-09-29T10:45:25.829Z,7.60
2018-09-29T10:47:29.584Z,9.77
2018-09-29T10:49:33.375Z,4.93
2018-09-29T10:51:37.218Z,6.43
2018-09-29T10:53:41.020Z,6.60
2018-09-29T10:55:53.846Z,7.03
2018-09-29T10:57:58.246Z,11.43
2018-09-29T11:00:16.625Z,6.83
2018-09-29T11:02:20.770Z,8.07
2018-09-29T11:04:24.883Z,7.13
2018-09-29T11:06:28.675Z,9.47
2018-09-29T11:08:32.576Z,7.30
2018-09-29T11:10:36.499Z,12.10
2018-09-29T11:12:40.329Z,7.27
2018-09-29T11:15:06.542Z,10.40
2018-09-29T11:17:38.591Z,7.53
2018-09-29T11:19:42.984Z,7.67
2018-09-29T11:21:47.158Z,9.43
2018-09-29T11:23:51.234Z,10.80
2018-09-29T11:25:55.204Z,6.33
2018-09-29T11:27:59.151Z,6.67
2018-09-29T11:30:03.237Z,5.77
2018-09-29T11:32:07.345Z,11.93
2018-09-29T11:34:39.972Z,8.60
2018-09-29T11:36:46.128Z,5.80
2018-09-29T11:38:50.055Z,7.37
2018-09-29T11:40:53.931Z,8.47
2018-09-29T11:42:57.800Z,4.97
2018-09-29T11:45:01.625Z,9.27
2018-09-29T11:47:05.458Z,8.23
2018-09-29T11:49:09.236Z,3.47
2018-09-29T11:51:13.232Z,7.37
2018-09-29T11:53:16.952Z,13.90
2018-09-29T11:55:20.788Z,7.47
2018-09-29T11:57:24.595Z,8.13
2018-09-29T11:59:28.450Z,5.73
2018-09-29T12:01:32.326Z,7.67
2018-09-29T12:03:36.798Z,6.90
2018-09-29T12:05:41.123Z,12.73
2018-09-29T12:07:45.363Z,9.53
2018-09-29T12:09:50.513Z,12.20
2018-09-29T12:11:54.647Z,9.10
2018-09-29T12:13:58.622Z,7.10
2018-09-29T12:16:02.834Z,4.50
2018-09-29T12:18:07.212Z,11.10
2018-09-29T12:20:11.373Z,8.57
2018-09-29T12:22:15.348Z,10.73
2018-09-29T12:24:19.935Z,8.13
2018-09-29T12:26:23.981Z,11.40
2018-09-29T12:28:28.130Z,8.10
2018-09-29T12:30:32.322Z,6.90
2018-09-29T12:32:36.434Z,5.17
2018-09-29T12:34:40.560Z,7.50
2018-09-29T12:36:44.545Z,8.10
2018-09-29T12:38:48.598Z,4.70
2018-09-29T12:40:52.756Z,8.00
2018-09-29T12:42:56.957Z,10.07
2018-09-29T12:45:01.367Z,6.23
2018-09-29T12:47:06.036Z,8.00
2018-09-29T12:49:10.038Z,6.87
2018-09-29T12:51:13.841Z,8.23
2018-09-29T12:53:18.065Z,7.70
2018-09-29T12:55:22.315Z,11.43
2018-09-29T12:57:26.113Z,13.73
2018-09-29T12:59:29.875Z,15.90
2018-09-29T13:01:33.722Z,11.77
2018-09-29T13:03:37.856Z,10.97
2018-09-29T13:05:41.619Z,7.47
2018-09-29T13:07:45.607Z,8.00
2018-09-29T13:09:49.426Z,8.10
2018-09-29T13:11:53.177Z,8.50
2018-09-29T13:13:57.074Z,5.40
2018-09-29T13:16:00.811Z,4.63
2018-09-29T13:18:04.598Z,5.33
2018-09-29T13:20:08.443Z,11.43
2018-09-29T13:22:12.579Z,9.50
2018-09-29T13:24:16.676Z,10.87
2018-09-29T13:26:20.643Z,7.33
2018-09-29T13:28:24.558Z,11.90
2018-09-29T13:30:28.467Z,7.60
2018-09-29T13:32:32.425Z,10.57
2018-09-29T13:34:36.751Z,6.47
2018-09-29T13:36:40.746Z,8.73
2018-09-29T13:38:45.351Z,9.70
2018-09-29T13:40:49.436Z,9.70
2018-09-29T13:42:54.327Z,8.93
2018-09-29T13:44:58.853Z,7.83
2018-09-29T13:47:03.116Z,3.57
2018-09-29T13:49:07.332Z,5.23
2018-09-29T13:51:11.188Z,10.27
2018-09-29T13:53:15.149Z,9.07
2018-09-29T13:55:19.611Z,8.73
2018-09-29T13:57:23.513Z,6.37
2018-09-29T13:59:27.400Z,6.43
2018-09-29T14:01:31.498Z,7.43
2018-09-29T14:03:35.451Z,7.10
2018-09-29T14:05:39.617Z,7.97
2018-09-29T14:07:43.849Z,7.13
2018-09-29T14:09:48.061Z,4.63
2018-09-29T14:11:52.246Z,6.47
2018-09-29T14:13:56.590Z,9.00
2018-09-29T14:16:00.603Z,10.77
2018-09-29T14:18:04.646Z,5.20
2018-09-29T14:20:08.935Z,14.27
2018-09-29T14:22:12.896Z,6.03
2018-09-29T14:24:16.991Z,8.63
2018-09-29T14:26:20.997Z,8.13
2018-09-29T14:28:25.178Z,7.37
2018-09-29T14:30:29.141Z,9.27
2018-09-29T14:32:33.386Z,8.30
2018-09-29T14:34:37.357Z,8.27
2018-09-29T14:36:41.068Z,12.50
2018-09-29T14:38:44.818Z,5.57
2018-09-29T14:40:48.617Z,4.23
2018-09-29T14:42:52.387Z,6.23
2018-09-29T14:44:56.213Z,7.23
2018-09-29T14:47:00.097Z,7.03
2018-09-29T14:49:04.020Z,12.43
2018-09-29T14:51:08.295Z,5.80
2018-09-29T14:53:12.526Z,11.57
2018-09-29T14:55:16.720Z,6.30
2018-09-29T14:57:20.567Z,15.80
2018-09-29T14:59:24.549Z,10.67
2018-09-29T15:01:28.654Z,4.93
2018-09-29T15:03:32.475Z,7.20
2018-09-29T15:05:36.503Z,4.03
2018-09-29T15:07:40.659Z,10.63
2018-09-29T15:09:44.808Z,11.40
2018-09-29T15:11:48.764Z,4.00
2018-09-29T15:13:52.840Z,6.93
2018-09-29T15:15:56.875Z,8.77
2018-09-29T15:18:02.297Z,6.30
2018-09-29T15:20:07.344Z,8.70
2018-09-29T15:22:11.304Z,9.40
2018-09-29T15:24:15.383Z,5.83
2018-09-29T15:26:19.671Z,12.63
2018-09-29T15:28:23.919Z,7.20
2018-09-29T15:30:28.313Z,9.97
2018-09-29T15:32:32.335Z,4.83
2018-09-29T15:34:36.428Z,5.40
2018-09-29T15:36:40.388Z,5.10
2018-09-29T15:38:44.360Z,7.00
2018-09-29T15:40:48.785Z,9.10
2018-09-29T15:42:53.027Z,10.33
2018-09-29T15:44:57.090Z,10.17
2018-09-29T15:47:01.125Z,10.70
2018-09-29T15:49:05.272Z,5.00
2018-09-29T15:51:09.590Z,3.43
2018-09-29T15:53:14.397Z,5.53
2018-09-29T15:55:18.744Z,6.43
2018-09-29T15:57:23.306Z,6.80
2018-09-29T15:59:27.450Z,11.20
2018-09-29T16:01:31.562Z,5.80
2018-09-29T16:03:36.638Z,6.70
2018-09-29T16:05:40.775Z,7.63
2018-09-29T16:07:46.128Z,5.10
2018-09-29T16:09:50.471Z,6.57
2018-09-29T16:11:55.145Z,10.13
2018-09-29T16:13:59.272Z,3.87
2018-09-29T16:16:03.420Z,11.10
2018-09-29T16:18:07.466Z,5.17
2018-09-29T16:20:11.780Z,10.13
2018-09-29T16:22:15.955Z,8.20
2018-09-29T16:24:20.159Z,7.80
2018-09-29T16:26:24.586Z,3.40
2018-09-29T16:28:28.720Z,9.10
2018-09-29T16:30:33.776Z,5.13
2018-09-29T16:32:38.355Z,4.30
2018-09-29T16:34:42.880Z,6.77
2018-09-29T16:36:46.830Z,7.87
2018-09-29T16:38:51.239Z,5.90
2018-09-29T16:40:55.226Z,9.30
2018-09-29T16:42:59.239Z,12.43
2018-09-29T16:45:03.878Z,16.47
2018-09-29T16:47:07.880Z,17.03
2018-09-29T16:49:11.775Z,9.20
2018-09-29T16:51:17.169Z,18.97
2018-09-29T16:53:21.433Z,11.47
2018-09-29T16:55:25.929Z,13.23
2018-09-29T16:57:30.051Z,10.17
2018-09-29T16:59:34.180Z,10.40
2018-09-29T17:01:38.244Z,8.20
2018-09-29T17:03:42.532Z,14.00
2018-09-29T17:05:46.478Z,9.83
2018-09-29T17:07:50.400Z,18.87
2018-09-29T17:09:54.510Z,13.33
2018-09-29T17:11:58.551Z,11.00
2018-09-29T17:14:02.853Z,7.80
2018-09-29T17:16:07.229Z,6.07
2018-09-29T17:18:11.293Z,10.87
2018-09-29T17:20:15.415Z,10.13
2018-09-29T17:22:19.706Z,8.90
2018-09-29T17:24:23.766Z,11.53
2018-09-29T17:26:28.623Z,16.20
2018-09-29T17:28:33.010Z,19.70
2018-09-29T17:30:37.039Z,14.90
2018-09-29T17:32:41.210Z,21.40
2018-09-29T17:34:45.280Z,16.70
2018-09-29T17:36:49.582Z,18.23
2018-09-29T17:38:54.746Z,26.13
2018-09-29T17:40:59.044Z,13.73
2018-09-29T17:43:03.184Z,13.10
2018-09-29T17:45:07.572Z,16.77
2018-09-29T17:47:11.642Z,15.00
2018-09-29T17:49:16.003Z,15.20
2018-09-29T17:51:20.109Z,14.30
2018-09-29T17:53:24.115Z,19.70
2018-09-29T17:55:28.132Z,14.17
2018-09-29T17:57:31.981Z,20.93
2018-09-29T17:59:36.082Z,15.63
2018-09-29T18:01:40.425Z,14.93
2018-09-29T18:03:44.776Z,16.10
2018-09-29T18:05:48.876Z,17.30
2018-09-29T18:07:53.184Z,16.33
2018-09-29T18:09:57.721Z,21.03
2018-09-29T18:12:03.068Z,24.07
2018-09-29T18:14:07.196Z,21.43
2018-09-29T18:16:11.163Z,20.80
2018-09-29T18:18:15.112Z,17.97
2018-09-29T18:20:19.398Z,26.83
2018-09-29T18:22:23.717Z,25.87
2018-09-29T18:24:31.865Z,19.33
2018-09-29T18:26:35.921Z,21.83
2018-09-29T18:28:40.289Z,22.27
2018-09-29T18:30:44.557Z,29.10
2018-09-29T18:32:48.889Z,20.93
2018-09-29T18:34:53.174Z,22.40
2018-09-29T18:36:57.560Z,23.60
2018-09-29T18:39:01.511Z,31.80
2018-09-29T18:41:05.959Z,20.77
2018-09-29T18:43:10.186Z,21.30
2018-09-29T18:45:14.613Z,24.03
2018-09-29T18:47:18.614Z,23.97
2018-09-29T18:49:22.738Z,21.40
2018-09-29T18:51:26.646Z,25.70
2018-09-29T18:53:30.607Z,33.80
2018-09-29T18:55:34.841Z,32.40
2018-09-29T18:57:38.899Z,28.80
2018-09-29T18:59:42.993Z,27.93
2018-09-29T19:01:47.205Z,19.73
2018-09-29T19:03:51.452Z,27.50
2018-09-29T19:05:55.785Z,26.90
2018-09-29T19:07:59.899Z,36.00
2018-09-29T19:10:04.094Z,32.20
2018-09-29T19:12:08.055Z,24.27
2018-09-29T19:14:11.999Z,23.07
2018-09-29T19:16:16.308Z,21.30
2018-09-29T19:18:20.874Z,20.10
2018-09-29T19:20:25.432Z,27.17
2018-09-29T19:22:29.541Z,23.33
2018-09-29T19:24:33.556Z,34.93
2018-09-29T19:26:37.655Z,41.60
2018-09-29T19:28:41.556Z,30.53
2018-09-29T19:30:46.025Z,23.23
2018-09-29T19:32:49.962Z,19.87
2018-09-29T19:34:53.732Z,22.00
2018-09-29T19:36:57.421Z,24.73
2018-09-29T19:39:01.379Z,19.23
2018-09-29T19:41:05.423Z,25.93
2018-09-29T19:43:10.204Z,13.37
2018-09-29T19:45:14.428Z,15.67
2018-09-29T19:47:19.404Z,14.73
2018-09-29T19:49:24.047Z,15.53
2018-09-29T19:51:28.841Z,20.13
2018-09-29T19:53:33.282Z,21.30
2018-09-29T19:55:38.098Z,24.30
2018-09-29T19:57:42.437Z,33.47
2018-09-29T19:59:47.499Z,35.13
2018-09-29T20:01:51.504Z,77.17
2018-09-29T20:03:56.235Z,100.63
2018-09-29T20:06:01.222Z,132.20
2018-09-29T20:08:05.742Z,133.60
2018-09-29T20:10:09.675Z,117.67
2018-09-29T20:12:13.465Z,85.40
2018-09-29T20:14:17.211Z,65.73
2018-09-29T20:16:21.077Z,61.60
2018-09-29T20:18:25.136Z,48.20
2018-09-29T20:20:29.128Z,53.50
2018-09-29T20:22:33.246Z,43.50
2018-09-29T20:24:37.499Z,50.60
2018-09-29T20:26:41.492Z,48.30
2018-09-29T20:28:45.999Z,42.20
2018-09-29T20:30:50.530Z,39.30
2018-09-29T20:32:54.614Z,32.10
2018-09-29T20:34:58.791Z,33.13
2018-09-29T20:37:03.073Z,24.73
2018-09-29T20:39:10.406Z,20.63
2018-09-29T20:41:14.491Z,20.63
2018-09-29T20:43:18.590Z,19.30
2018-09-29T20:45:22.724Z,16.17
2018-09-29T20:47:26.782Z,16.20
2018-09-29T20:49:30.928Z,24.27
2018-09-29T20:51:35.377Z,16.27
2018-09-29T20:53:39.599Z,13.60
2018-09-29T20:55:43.866Z,21.20
2018-09-29T20:57:48.136Z,13.00
2018-09-29T20:59:52.310Z,18.60
2018-09-29T21:01:56.467Z,16.93
2018-09-29T21:04:00.542Z,15.43
2018-09-29T21:06:05.004Z,18.07
2018-09-29T21:08:09.256Z,16.77
2018-09-29T21:10:13.295Z,13.67
2018-09-29T21:12:17.280Z,23.47
2018-09-29T21:14:21.398Z,14.03
2018-09-29T21:16:25.421Z,15.27
2018-09-29T21:18:29.705Z,12.20
2018-09-29T21:20:33.724Z,13.33
2018-09-29T21:22:37.921Z,12.17
2018-09-29T21:24:41.947Z,13.10
2018-09-29T21:26:46.001Z,17.10
2018-09-29T21:28:49.948Z,15.90
2018-09-29T21:30:54.037Z,16.97
2018-09-29T21:32:58.240Z,13.73
2018-09-29T21:35:02.435Z,11.13
2018-09-29T21:37:06.404Z,11.03
2018-09-29T21:39:10.405Z,8.40
2018-09-29T21:41:14.359Z,19.43
2018-09-29T21:43:18.404Z,9.73
2018-09-29T21:45:22.412Z,10.60
2018-09-29T21:47:26.775Z,10.20
2018-09-29T21:49:31.281Z,17.90
2018-09-29T21:51:35.467Z,13.03
2018-09-29T21:53:39.499Z,13.47
2018-09-29T21:55:43.572Z,11.67
2018-09-29T21:57:47.876Z,9.00
2018-09-29T21:59:51.958Z,14.27
2018-09-29T22:01:55.988Z,10.35
2018-09-29T22:04:01.408Z,12.20
2018-09-29T22:06:05.584Z,15.77
2018-09-29T22:08:09.614Z,21.90
2018-09-29T22:10:13.556Z,10.90
2018-09-29T22:12:17.780Z,15.03
2018-09-29T22:14:22.148Z,9.80
2018-09-29T22:16:26.308Z,10.53
2018-09-29T22:18:30.209Z,7.47
2018-09-29T22:20:34.523Z,10.73
2018-09-29T22:22:38.497Z,8.20
2018-09-29T22:24:42.972Z,11.53
2018-09-29T22:26:47.944Z,8.60
2018-09-29T22:28:52.035Z,9.00
2018-09-29T22:30:55.939Z,14.80
2018-09-29T22:32:59.920Z,13.50
2018-09-29T22:35:04.033Z,15.00
2018-09-29T22:37:08.009Z,15.67
2018-09-29T22:39:12.653Z,21.40
2018-09-29T22:41:16.921Z,14.70
2018-09-29T22:43:20.903Z,23.93
2018-09-29T22:45:24.951Z,16.10
2018-09-29T22:47:28.905Z,14.73
2018-09-29T22:49:32.881Z,15.53
2018-09-29T22:51:36.858Z,14.00
2018-09-29T22:53:40.777Z,12.40
2018-09-29T22:55:44.947Z,13.67
2018-09-29T22:57:48.955Z,12.77
2018-09-29T22:59:53.091Z,14.00
2018-09-29T23:01:57.019Z,14.23
2018-09-29T23:04:01.018Z,12.97
2018-09-29T23:06:05.108Z,16.57
2018-09-29T23:08:09.325Z,15.67
2018-09-29T23:10:13.341Z,11.40
2018-09-29T23:12:17.446Z,13.67
2018-09-29T23:14:21.599Z,10.70
2018-09-29T23:16:25.772Z,13.40
2018-09-29T23:18:36.323Z,11.70
2018-09-29T23:20:40.375Z,7.80
2018-09-29T23:22:44.595Z,9.80
2018-09-29T23:24:48.624Z,15.13
2018-09-29T23:26:52.589Z,23.23
2018-09-29T23:28:56.559Z,14.60
2018-09-29T23:31:00.621Z,26.70
2018-09-29T23:33:04.643Z,23.53
2018-09-29T23:35:08.811Z,20.77
2018-09-29T23:37:12.885Z,19.20
2018-09-29T23:39:16.986Z,20.88
2018-09-29T23:41:20.928Z,15.00
2018-09-29T23:43:25.195Z,18.00
2018-09-29T23:45:29.269Z,13.63
2018-09-29T23:47:33.406Z,11.57
2018-09-29T23:49:37.392Z,12.30
2018-09-29T23:51:41.436Z,13.57
2018-09-29T23:53:45.614Z,11.37
2018-09-29T23:55:49.488Z,9.37
2018-09-29T23:57:53.426Z,13.17
2018-09-29T23:59:57.446Z,10.30
